Canaan, Arkansas
Current Conditions -  °F | °C
As of 10:35 AM on Friday 24 Oct 2014 (Local Time) from KFLP Reporting Station
Clear Clear  
Wind Chill: 57°   Ceiling: Unl
Heat Index: 57°   Visibility: 10mi
Dew Point: 48°   Wind: 0mph
Humidity: 72%   Direction: NA
Pressure: 30.17"   Gusts: NA
Location:  35.9407°N, 92.655°W
Report Text: KFLP 241535Z AUTO 00000KT 10SM CLR 14/09 A3017 RMK AO1
Loading
Personal Weather Stations






























Interactive Weather Map
Tropical Storm Tracking
New forecast layout! Learn more

10-Day Weather Forecast

Advertisements
Track Severe Weather on mobile